Time;durP1;ratioP1;P1;durP2;ratioP2;P2;SDS_P1;SDS_P2;PMS_P1;PMS_P2;Temp;Humidity;BMP_temperature;BMP_pressure;BME280_temperature;BME280_humidity;BME280_pressure;Samples;Min_cycle;Max_cycle;Signal;HPM_P1;HPM_P2
2021/08/29 00:00:36;;;;;;;3.83;1.80;;;;;;;;;;5054124;28;20090;-78
2021/08/29 00:03:02;;;;;;;7.07;1.85;;;;;;;;;;5065498;28;20017;-78
2021/08/29 00:05:28;;;;;;;6.55;1.67;;;;;;;;;;5072659;28;20021;-79
2021/08/29 00:07:54;;;;;;;6.30;1.83;;;;;;;;;;5074220;28;20035;-78
2021/08/29 00:10:20;;;;;;;5.82;2.00;;;;;;;;;;5072562;28;20423;-79
2021/08/29 00:12:46;;;;;;;8.90;1.90;;;;;;;;;;5073806;28;20021;-78
2021/08/29 00:15:12;;;;;;;4.65;1.58;;;;;;;;;;5073817;28;20082;-79
2021/08/29 00:17:38;;;;;;;3.83;1.60;;;;;;;;;;5072066;28;20036;-79
2021/08/29 00:20:06;;;;;;;7.35;1.77;;;;;;;;;;5072484;28;20032;-78
2021/08/29 00:22:32;;;;;;;5.80;2.03;;;;;;;;;;5072284;28;20024;-77
2021/08/29 00:24:58;;;;;;;4.68;1.38;;;;;;;;;;5073788;28;20024;-78
2021/08/29 00:27:24;;;;;;;4.55;1.30;;;;;;;;;;5072079;28;20059;-78
2021/08/29 00:29:50;;;;;;;6.28;2.10;;;;;;;;;;5073778;28;20032;-79
2021/08/29 00:32:16;;;;;;;4.75;1.60;;;;;;;;;;5073609;28;20459;-77
2021/08/29 00:34:42;;;;;;;4.43;1.52;;;;;;;;;;5073335;28;20593;-77
2021/08/29 00:37:08;;;;;;;5.25;1.75;;;;;;;;;;5072120;28;20662;-79
2021/08/29 00:39:35;;;;;;;4.70;1.58;;;;;;;;;;5073191;28;20032;-79
2021/08/29 00:42:01;;;;;;;4.38;1.60;;;;;;;;;;5072032;28;20436;-79
2021/08/29 00:44:27;;;;;;;3.80;1.80;;;;;;;;;;5071913;28;20028;-79
2021/08/29 00:46:53;;;;;;;8.43;1.80;;;;;;;;;;5072022;28;20025;-78
2021/08/29 00:49:20;;;;;;;4.88;1.60;;;;;;;;;;5073002;28;20021;-76
2021/08/29 00:51:47;;;;;;;3.67;1.60;;;;;;;;;;5071309;28;20025;-79
2021/08/29 00:54:13;;;;;;;3.10;1.30;;;;;;;;;;5071561;28;20132;-76
2021/08/29 00:56:39;;;;;;;6.07;1.90;;;;;;;;;;5072928;28;20024;-79
2021/08/29 00:59:05;;;;;;;4.70;1.55;;;;;;;;;;5071413;28;20067;-79
2021/08/29 01:01:42;;;;;;;6.25;1.58;;;;;;;;;;5071448;28;20107;-80
2021/08/29 01:04:10;;;;;;;3.78;1.60;;;;;;;;;;5073113;28;20585;-78
2021/08/29 01:06:44;;;;;;;4.50;1.50;;;;;;;;;;5072886;28;20375;-79
2021/08/29 01:09:11;;;;;;;4.38;1.88;;;;;;;;;;5071269;28;20020;-78
2021/08/29 01:11:39;;;;;;;3.58;1.58;;;;;;;;;;5072757;28;20024;-76
2021/08/29 01:14:06;;;;;;;5.93;1.75;;;;;;;;;;5071425;28;20493;-78
2021/08/29 01:16:34;;;;;;;4.22;1.77;;;;;;;;;;5072678;28;20099;-79
2021/08/29 01:19:01;;;;;;;5.07;1.77;;;;;;;;;;5071093;28;20415;-78
2021/08/29 01:21:28;;;;;;;4.07;1.73;;;;;;;;;;5071396;28;20079;-77
2021/08/29 01:24:06;;;;;;;4.53;1.70;;;;;;;;;;5071477;28;20502;-75
2021/08/29 01:26:35;;;;;;;3.63;1.50;;;;;;;;;;5072460;28;20025;-77
2021/08/29 01:29:06;;;;;;;3.45;1.50;;;;;;;;;;5070959;28;20020;-76
2021/08/29 01:31:32;;;;;;;2.78;1.40;;;;;;;;;;5071016;28;20620;-77
2021/08/29 01:34:01;;;;;;;4.07;1.70;;;;;;;;;;5071041;28;20033;-77
2021/08/29 01:36:28;;;;;;;4.68;1.60;;;;;;;;;;5071038;28;20017;-77
2021/08/29 01:38:55;;;;;;;4.03;1.70;;;;;;;;;;5072213;28;20036;-77
2021/08/29 01:41:22;;;;;;;5.65;1.85;;;;;;;;;;5072361;28;20020;-75
2021/08/29 01:43:49;;;;;;;4.70;1.60;;;;;;;;;;5072270;28;20122;-75
2021/08/29 01:46:16;;;;;;;3.72;1.60;;;;;;;;;;5070994;28;20124;-75
2021/08/29 01:48:42;;;;;;;3.50;1.55;;;;;;;;;;5070897;28;20455;-76
2021/08/29 01:51:09;;;;;;;3.38;1.52;;;;;;;;;;5071960;28;20062;-77
2021/08/29 01:53:36;;;;;;;3.88;1.50;;;;;;;;;;5071999;28;20491;-76
2021/08/29 01:56:02;;;;;;;5.50;1.52;;;;;;;;;;5070694;28;20035;-77
2021/08/29 01:58:28;;;;;;;3.42;1.58;;;;;;;;;;5070609;28;20032;-75
2021/08/29 02:00:57;;;;;;;3.47;1.50;;;;;;;;;;5071819;28;20333;-76
2021/08/29 02:03:24;;;;;;;3.78;1.50;;;;;;;;;;5071452;28;20031;-77
2021/08/29 02:05:54;;;;;;;4.15;1.50;;;;;;;;;;5070762;28;20062;-76
2021/08/29 02:08:20;;;;;;;2.95;1.40;;;;;;;;;;5072081;28;20391;-77
2021/08/29 02:10:48;;;;;;;3.33;1.48;;;;;;;;;;5071815;28;20108;-77
2021/08/29 02:13:16;;;;;;;3.28;1.60;;;;;;;;;;5071789;28;20146;-78
2021/08/29 02:15:45;;;;;;;4.50;1.70;;;;;;;;;;5071899;28;20020;-77
2021/08/29 02:18:12;;;;;;;3.42;1.73;;;;;;;;;;5071829;28;20027;-76
2021/08/29 02:20:38;;;;;;;3.63;1.40;;;;;;;;;;5071894;28;20028;-77
2021/08/29 02:23:05;;;;;;;4.80;1.55;;;;;;;;;;5071905;28;20046;-76
2021/08/29 02:25:31;;;;;;;3.35;1.60;;;;;;;;;;5070441;28;20487;-74
2021/08/29 02:27:57;;;;;;;3.95;2.00;;;;;;;;;;5071429;28;20597;-77
2021/08/29 02:30:23;;;;;;;3.08;1.50;;;;;;;;;;5071832;28;20055;-76
2021/08/29 02:32:51;;;;;;;5.13;1.73;;;;;;;;;;5071694;28;20024;-78
2021/08/29 02:35:17;;;;;;;3.53;1.80;;;;;;;;;;5071699;28;20107;-76
2021/08/29 02:37:44;;;;;;;4.05;1.83;;;;;;;;;;5071531;28;20029;-78
2021/08/29 02:40:11;;;;;;;3.88;1.67;;;;;;;;;;5070365;28;20408;-77
2021/08/29 02:42:38;;;;;;;2.92;1.70;;;;;;;;;;5070285;28;20025;-75
2021/08/29 02:45:05;;;;;;;3.50;1.55;;;;;;;;;;5070164;28;20069;-78
2021/08/29 02:47:32;;;;;;;5.00;1.85;;;;;;;;;;5071422;28;20464;-78
2021/08/29 02:49:58;;;;;;;3.45;1.75;;;;;;;;;;5071408;28;20025;-78
2021/08/29 02:52:24;;;;;;;4.15;1.70;;;;;;;;;;5070246;28;20029;-77
2021/08/29 02:54:51;;;;;;;3.63;1.50;;;;;;;;;;5071225;28;20519;-78
2021/08/29 02:57:18;;;;;;;8.25;1.90;;;;;;;;;;5069974;28;20123;-77
2021/08/29 02:59:44;;;;;;;3.83;1.60;;;;;;;;;;5070102;28;20125;-78
2021/08/29 03:02:11;;;;;;;4.72;1.80;;;;;;;;;;5070021;28;20028;-78
2021/08/29 03:04:37;;;;;;;5.43;1.70;;;;;;;;;;5071669;28;20024;-78
2021/08/29 03:07:03;;;;;;;3.60;1.25;;;;;;;;;;5070112;28;20383;-78
2021/08/29 03:09:36;;;;;;;4.70;1.63;;;;;;;;;;5070054;28;20027;-78
2021/08/29 03:12:08;;;;;;;3.35;1.42;;;;;;;;;;5071246;28;20050;-79
2021/08/29 03:14:35;;;;;;;3.63;1.40;;;;;;;;;;5072145;28;20037;-77
2021/08/29 03:17:02;;;;;;;2.72;1.45;;;;;;;;;;5074811;28;20056;-79
2021/08/29 03:19:28;;;;;;;4.97;1.63;;;;;;;;;;5075040;28;20041;-78
2021/08/29 03:21:54;;;;;;;5.35;1.67;;;;;;;;;;5073589;28;20613;-80
2021/08/29 03:24:21;;;;;;;3.38;1.60;;;;;;;;;;5075008;28;20128;-76
2021/08/29 03:26:47;;;;;;;3.28;1.67;;;;;;;;;;5074769;28;20091;-79
2021/08/29 03:29:13;;;;;;;4.03;1.70;;;;;;;;;;5074528;28;20462;-79
2021/08/29 03:31:39;;;;;;;3.13;1.67;;;;;;;;;;5073343;28;20024;-79
2021/08/29 03:34:06;;;;;;;3.70;1.70;;;;;;;;;;5073429;28;20031;-79
2021/08/29 03:36:32;;;;;;;4.50;1.73;;;;;;;;;;5074754;28;20085;-80
2021/08/29 03:39:00;;;;;;;3.50;1.40;;;;;;;;;;5073117;28;20434;-77
2021/08/29 03:41:28;;;;;;;3.88;1.60;;;;;;;;;;5073446;28;20021;-79
2021/08/29 03:43:54;;;;;;;4.95;1.85;;;;;;;;;;5074792;28;20054;-79
2021/08/29 03:46:22;;;;;;;3.92;1.77;;;;;;;;;;5073296;28;20056;-78
2021/08/29 03:48:48;;;;;;;2.95;1.48;;;;;;;;;;5073153;28;20074;-74
2021/08/29 03:51:15;;;;;;;6.47;1.80;;;;;;;;;;5074234;28;20639;-79
2021/08/29 03:53:41;;;;;;;3.42;1.40;;;;;;;;;;5073032;28;20040;-78
2021/08/29 03:56:07;;;;;;;5.90;1.60;;;;;;;;;;5074285;28;20521;-75
2021/08/29 03:58:35;;;;;;;8.45;2.00;;;;;;;;;;5073126;28;20458;-74
2021/08/29 04:01:01;;;;;;;10.32;2.03;;;;;;;;;;5072950;28;20105;-80
2021/08/29 04:03:27;;;;;;;4.53;1.92;;;;;;;;;;5073629;28;20025;-76
2021/08/29 04:05:54;;;;;;;4.10;1.55;;;;;;;;;;5074596;28;20420;-77
2021/08/29 04:08:20;;;;;;;3.85;1.77;;;;;;;;;;5072889;28;20028;-79
2021/08/29 04:10:47;;;;;;;7.97;1.52;;;;;;;;;;5072988;28;20471;-77
2021/08/29 04:13:14;;;;;;;4.18;1.70;;;;;;;;;;5074322;28;20032;-76
2021/08/29 04:15:41;;;;;;;4.82;1.50;;;;;;;;;;5074378;28;20021;-77
2021/08/29 04:18:07;;;;;;;5.72;1.73;;;;;;;;;;5072765;28;20028;-77
2021/08/29 04:20:33;;;;;;;5.30;1.67;;;;;;;;;;5074090;28;20059;-78
2021/08/29 04:22:59;;;;;;;3.78;1.65;;;;;;;;;;5073987;28;20048;-77
2021/08/29 04:25:26;;;;;;;3.60;1.50;;;;;;;;;;5071971;28;20052;-78
2021/08/29 04:27:52;;;;;;;5.70;1.77;;;;;;;;;;5073974;28;20017;-76
2021/08/29 04:30:18;;;;;;;4.28;1.98;;;;;;;;;;5074341;28;20561;-84
2021/08/29 04:32:46;;;;;;;6.10;1.80;;;;;;;;;;5073885;28;20379;-80
2021/08/29 04:35:12;;;;;;;3.92;1.73;;;;;;;;;;5072558;28;20031;-76
2021/08/29 04:37:38;;;;;;;5.00;1.58;;;;;;;;;;5073851;28;20028;-87
2021/08/29 04:40:04;;;;;;;3.40;1.63;;;;;;;;;;5074772;28;20024;-75
2021/08/29 04:42:30;;;;;;;5.45;1.70;;;;;;;;;;5073609;28;20024;-75
2021/08/29 04:44:56;;;;;;;3.97;1.70;;;;;;;;;;5073553;28;20089;-76
2021/08/29 04:47:22;;;;;;;3.22;1.60;;;;;;;;;;5073370;28;20031;-75
2021/08/29 04:49:48;;;;;;;6.00;1.73;;;;;;;;;;5072128;28;20033;-75
2021/08/29 04:52:14;;;;;;;4.03;1.73;;;;;;;;;;5073443;28;20017;-76
2021/08/29 04:54:40;;;;;;;3.58;1.80;;;;;;;;;;5071923;28;20139;-75
2021/08/29 04:57:06;;;;;;;5.07;2.00;;;;;;;;;;5073349;28;20361;-75
2021/08/29 04:59:33;;;;;;;3.90;1.92;;;;;;;;;;5073344;28;20616;-76
2021/08/29 05:01:59;;;;;;;3.55;1.70;;;;;;;;;;5073050;28;20452;-75
2021/08/29 05:04:25;;;;;;;3.28;1.70;;;;;;;;;;5073246;28;20031;-76
2021/08/29 05:06:51;;;;;;;3.03;1.70;;;;;;;;;;5071867;28;20017;-75
2021/08/29 05:09:17;;;;;;;4.35;1.88;;;;;;;;;;5071778;28;20021;-75
2021/08/29 05:11:43;;;;;;;3.60;1.50;;;;;;;;;;5073046;28;20032;-75
2021/08/29 05:14:09;;;;;;;4.47;1.80;;;;;;;;;;5073007;28;20103;-75
2021/08/29 05:16:35;;;;;;;4.15;1.70;;;;;;;;;;5072841;28;20029;-75
2021/08/29 05:19:01;;;;;;;6.28;1.98;;;;;;;;;;5071573;28;20058;-76
2021/08/29 05:21:27;;;;;;;3.22;1.63;;;;;;;;;;5072776;28;20031;-74
2021/08/29 05:23:53;;;;;;;4.22;1.63;;;;;;;;;;5072710;28;20020;-75
2021/08/29 05:26:19;;;;;;;4.15;1.90;;;;;;;;;;5072941;28;20597;-75
2021/08/29 05:28:45;;;;;;;5.07;1.80;;;;;;;;;;5072546;28;20531;-75
2021/08/29 05:31:11;;;;;;;4.32;2.00;;;;;;;;;;5072623;28;20050;-75
2021/08/29 05:33:37;;;;;;;4.30;2.03;;;;;;;;;;5072531;28;20027;-75
2021/08/29 05:36:03;;;;;;;4.30;1.83;;;;;;;;;;5072662;28;20062;-75
2021/08/29 05:38:29;;;;;;;4.60;2.00;;;;;;;;;;5071179;28;20131;-75
2021/08/29 05:40:55;;;;;;;4.80;1.98;;;;;;;;;;5072541;28;20025;-75
2021/08/29 05:43:21;;;;;;;4.38;1.70;;;;;;;;;;5072459;28;20023;-81
2021/08/29 05:45:47;;;;;;;5.65;2.20;;;;;;;;;;5072304;28;20023;-76
2021/08/29 05:48:13;;;;;;;3.85;1.73;;;;;;;;;;5073156;28;20048;-75
2021/08/29 05:50:40;;;;;;;4.78;2.00;;;;;;;;;;5072319;28;20016;-76
2021/08/29 05:53:06;;;;;;;4.15;2.03;;;;;;;;;;5077900;28;20020;-91
2021/08/29 05:55:32;;;;;;;7.07;2.17;;;;;;;;;;5069169;28;20024;-90
2021/08/29 05:57:58;;;;;;;5.82;1.92;;;;;;;;;;5056122;28;20033;-95
2021/08/29 06:00:24;;;;;;;4.10;2.05;;;;;;;;;;5053324;28;20035;-77
2021/08/29 06:02:50;;;;;;;3.53;1.98;;;;;;;;;;5052188;28;20091;-76
2021/08/29 06:05:16;;;;;;;4.18;1.80;;;;;;;;;;5052077;28;20021;-80
2021/08/29 06:07:42;;;;;;;4.55;2.00;;;;;;;;;;5052315;28;20017;-82
2021/08/29 06:10:09;;;;;;;3.92;1.92;;;;;;;;;;5050892;28;20021;-76
2021/08/29 06:12:35;;;;;;;2.95;1.60;;;;;;;;;;5052267;28;20048;-75
2021/08/29 06:15:01;;;;;;;7.38;2.03;;;;;;;;;;5052072;28;20040;-76
2021/08/29 06:17:27;;;;;;;4.15;2.20;;;;;;;;;;5051809;28;20035;-76
2021/08/29 06:19:53;;;;;;;5.57;1.85;;;;;;;;;;5050625;28;20029;-75
2021/08/29 06:22:19;;;;;;;3.72;1.52;;;;;;;;;;5050667;28;20021;-76
2021/08/29 06:24:45;;;;;;;3.85;2.00;;;;;;;;;;5051898;28;20074;-76
2021/08/29 06:27:11;;;;;;;3.72;1.90;;;;;;;;;;5051832;28;20025;-76
2021/08/29 06:29:37;;;;;;;4.15;2.00;;;;;;;;;;5071534;28;20021;-76
2021/08/29 06:32:03;;;;;;;4.13;1.95;;;;;;;;;;5071803;28;20546;-78
2021/08/29 06:34:30;;;;;;;7.47;2.28;;;;;;;;;;5071855;28;20042;-75
2021/08/29 06:36:56;;;;;;;4.35;1.80;;;;;;;;;;5070484;28;20033;-77
2021/08/29 06:39:22;;;;;;;5.50;1.90;;;;;;;;;;5070240;28;20067;-75
2021/08/29 06:41:48;;;;;;;5.95;2.30;;;;;;;;;;5071846;28;20027;-78
2021/08/29 06:44:14;;;;;;;3.60;1.75;;;;;;;;;;5070666;28;20043;-74
2021/08/29 06:46:40;;;;;;;3.78;1.77;;;;;;;;;;5070238;28;20020;-78
2021/08/29 06:49:06;;;;;;;4.07;2.08;;;;;;;;;;5073037;28;20251;-77
2021/08/29 06:51:32;;;;;;;3.20;1.85;;;;;;;;;;5074275;28;20013;-79
2021/08/29 06:53:58;;;;;;;4.25;1.70;;;;;;;;;;5075365;28;20079;-79
2021/08/29 06:56:24;;;;;;;5.72;2.03;;;;;;;;;;5074217;28;20052;-75
2021/08/29 06:58:50;;;;;;;5.95;1.90;;;;;;;;;;5075556;28;20040;-77
2021/08/29 07:01:16;;;;;;;3.45;1.83;;;;;;;;;;5075373;28;20025;-76
2021/08/29 07:03:42;;;;;;;4.95;1.77;;;;;;;;;;5075521;28;20021;-76
2021/08/29 07:06:08;;;;;;;3.60;1.80;;;;;;;;;;5075644;28;20021;-75
2021/08/29 07:08:34;;;;;;;5.07;1.77;;;;;;;;;;5075548;28;20036;-74
2021/08/29 07:11:00;;;;;;;4.88;1.77;;;;;;;;;;5074124;28;20055;-76
2021/08/29 07:13:27;;;;;;;2.97;1.70;;;;;;;;;;5075295;28;20061;-76
2021/08/29 07:15:53;;;;;;;5.88;1.55;;;;;;;;;;5074082;28;20028;-77
2021/08/29 07:18:19;;;;;;;2.85;1.60;;;;;;;;;;5073869;28;20473;-74
2021/08/29 07:20:45;;;;;;;6.57;1.60;;;;;;;;;;5073999;28;20558;-75
2021/08/29 07:23:11;;;;;;;3.42;1.50;;;;;;;;;;5073849;28;20027;-76
2021/08/29 07:25:37;;;;;;;5.20;1.88;;;;;;;;;;5073970;28;20032;-77
2021/08/29 07:28:03;;;;;;;6.57;1.80;;;;;;;;;;5074631;28;20519;-78
2021/08/29 07:30:30;;;;;;;3.45;1.42;;;;;;;;;;5074977;28;20021;-76
2021/08/29 07:32:56;;;;;;;3.50;1.58;;;;;;;;;;5073636;28;20059;-77
2021/08/29 07:35:22;;;;;;;4.03;1.85;;;;;;;;;;5073460;28;20020;-78
2021/08/29 07:37:48;;;;;;;6.95;1.70;;;;;;;;;;5073513;28;20031;-79
2021/08/29 07:40:14;;;;;;;3.35;1.63;;;;;;;;;;5073208;28;20029;-77
2021/08/29 07:42:40;;;;;;;19.88;2.00;;;;;;;;;;5074968;28;20074;-79
2021/08/29 07:45:07;;;;;;;6.38;1.80;;;;;;;;;;5074834;28;20502;-79
2021/08/29 07:47:33;;;;;;;3.45;1.48;;;;;;;;;;5074736;28;20112;-75
2021/08/29 07:49:59;;;;;;;2.45;1.20;;;;;;;;;;5074715;28;20028;-79
2021/08/29 07:52:25;;;;;;;2.97;1.60;;;;;;;;;;5073378;28;20024;-73
2021/08/29 07:54:51;;;;;;;2.80;1.33;;;;;;;;;;5073581;28;20643;-76
2021/08/29 07:57:17;;;;;;;2.90;1.50;;;;;;;;;;5054305;28;20029;-80
2021/08/29 07:59:43;;;;;;;2.47;1.35;;;;;;;;;;5069220;28;20032;-76
2021/08/29 08:02:11;;;;;;;7.25;1.85;;;;;;;;;;5070025;28;20456;-76
2021/08/29 08:04:37;;;;;;;6.93;1.65;;;;;;;;;;5074283;28;20020;-76
2021/08/29 08:07:03;;;;;;;4.07;1.50;;;;;;;;;;5074250;28;20071;-76
2021/08/29 08:09:29;;;;;;;3.17;1.30;;;;;;;;;;5089869;28;20017;-75
2021/08/29 08:11:56;;;;;;;3.05;1.45;;;;;;;;;;5074341;28;20035;-76
2021/08/29 08:14:22;;;;;;;4.15;1.50;;;;;;;;;;5089893;28;20021;-76
2021/08/29 08:16:48;;;;;;;4.97;1.80;;;;;;;;;;5073976;28;20431;-77
2021/08/29 08:19:14;;;;;;;4.32;1.60;;;;;;;;;;5073804;28;20067;-76
2021/08/29 08:21:40;;;;;;;3.22;1.50;;;;;;;;;;5089450;28;20407;-82
2021/08/29 08:24:06;;;;;;;2.92;1.50;;;;;;;;;;5089607;28;20028;-76
2021/08/29 08:26:32;;;;;;;3.38;1.60;;;;;;;;;;5073922;28;20605;-75
2021/08/29 08:28:58;;;;;;;3.38;1.25;;;;;;;;;;5073752;28;20029;-76
2021/08/29 08:31:24;;;;;;;3.35;1.73;;;;;;;;;;5073986;28;20025;-75
2021/08/29 08:33:50;;;;;;;4.43;1.67;;;;;;;;;;5073989;28;20032;-75
2021/08/29 08:36:16;;;;;;;3.33;1.30;;;;;;;;;;5072526;28;20082;-75
2021/08/29 08:38:42;;;;;;;3.58;1.60;;;;;;;;;;5073685;28;20032;-76
2021/08/29 08:41:09;;;;;;;3.28;1.60;;;;;;;;;;5073437;28;20056;-76
2021/08/29 08:43:35;;;;;;;5.18;1.48;;;;;;;;;;5073676;28;20024;-79
2021/08/29 08:46:03;;;;;;;8.93;1.85;;;;;;;;;;5072601;28;20027;-83
2021/08/29 08:48:29;;;;;;;8.43;1.75;;;;;;;;;;5073372;28;20100;-77
2021/08/29 08:50:57;;;;;;;11.32;1.50;;;;;;;;;;5073441;28;20454;-75
2021/08/29 08:53:25;;;;;;;2.53;1.20;;;;;;;;;;5088900;28;20060;-76
2021/08/29 08:55:51;;;;;;;6.07;1.63;;;;;;;;;;5089224;28;20028;-78
2021/08/29 08:58:18;;;;;;;5.03;1.30;;;;;;;;;;5073323;28;20024;-78
2021/08/29 09:00:44;;;;;;;5.38;1.80;;;;;;;;;;5072118;28;20410;-77
2021/08/29 09:03:11;;;;;;;4.68;1.60;;;;;;;;;;5071587;28;20024;-76
2021/08/29 09:05:37;;;;;;;5.13;1.55;;;;;;;;;;5073050;28;20632;-77
2021/08/29 09:08:04;;;;;;;4.90;1.45;;;;;;;;;;5071874;28;20088;-77
2021/08/29 09:10:30;;;;;;;3.85;1.73;;;;;;;;;;5073033;28;20025;-77
2021/08/29 09:12:56;;;;;;;3.58;1.80;;;;;;;;;;5072800;28;20150;-76
2021/08/29 09:15:22;;;;;;;5.82;1.80;;;;;;;;;;5072812;28;20059;-77
2021/08/29 09:17:48;;;;;;;3.50;1.52;;;;;;;;;;5071553;28;20474;-76
2021/08/29 09:20:16;;;;;;;5.20;1.65;;;;;;;;;;5071879;28;20495;-84
2021/08/29 09:22:43;;;;;;;7.13;2.00;;;;;;;;;;5074281;28;20025;-76
2021/08/29 09:25:13;;;;;;;6.18;1.85;;;;;;;;;;5074361;28;20027;-88
2021/08/29 09:27:41;;;;;;;5.65;1.80;;;;;;;;;;5070788;28;20060;-93
2021/08/29 09:30:07;;;;;;;6.93;1.65;;;;;;;;;;5054243;28;20103;-92
2021/08/29 09:32:33;;;;;;;4.15;1.40;;;;;;;;;;5053852;28;20083;-81
2021/08/29 09:35:01;;;;;;;9.30;2.00;;;;;;;;;;5053741;28;20484;-86
2021/08/29 09:37:27;;;;;;;7.68;1.98;;;;;;;;;;5062704;28;20021;-91
2021/08/29 09:40:11;;;;;;;7.15;1.73;;;;;;;;;;5075305;28;20041;-89
2021/08/29 09:42:41;;;;;;;6.95;1.90;;;;;;;;;;5074133;28;20494;-86
2021/08/29 09:45:07;;;;;;;6.45;1.70;;;;;;;;;;5073588;28;20056;-89
2021/08/29 09:47:34;;;;;;;10.70;1.85;;;;;;;;;;5075633;28;20029;-85
2021/08/29 09:50:04;;;;;;;3.45;1.35;;;;;;;;;;5073544;28;20029;-90
2021/08/29 09:52:30;;;;;;;3.53;1.50;;;;;;;;;;5073517;28;20137;-87
2021/08/29 09:54:56;;;;;;;6.72;1.63;;;;;;;;;;5074346;28;20094;-87
2021/08/29 09:57:22;;;;;;;5.00;1.80;;;;;;;;;;5073254;28;20036;-85
2021/08/29 09:59:49;;;;;;;4.10;1.67;;;;;;;;;;5073641;28;20111;-88
2021/08/29 10:02:18;;;;;;;6.57;1.40;;;;;;;;;;5057850;28;20039;-89
2021/08/29 10:04:44;;;;;;;6.97;1.63;;;;;;;;;;5053237;28;20049;-86
2021/08/29 10:07:11;;;;;;;2.80;1.45;;;;;;;;;;5054392;28;20079;-88
2021/08/29 10:09:37;;;;;;;7.93;1.48;;;;;;;;;;5069138;28;20085;-84
2021/08/29 10:12:04;;;;;;;4.05;1.60;;;;;;;;;;5074347;28;20035;-89
2021/08/29 10:14:31;;;;;;;3.58;1.30;;;;;;;;;;5074288;28;20013;-88
2021/08/29 10:16:58;;;;;;;4.88;1.60;;;;;;;;;;5074676;28;20036;-92
2021/08/29 10:19:25;;;;;;;2.67;1.35;;;;;;;;;;5073636;28;20531;-89
2021/08/29 10:21:52;;;;;;;5.43;1.42;;;;;;;;;;5074456;28;20025;-88
2021/08/29 10:24:19;;;;;;;3.72;1.67;;;;;;;;;;5073113;28;20064;-90
2021/08/29 10:26:46;;;;;;;3.53;1.17;;;;;;;;;;5074456;28;20032;-91
2021/08/29 10:29:17;;;;;;;5.55;1.30;;;;;;;;;;5068741;28;20021;-83
2021/08/29 10:32:07;;;;;;;4.07;1.50;;;;;;;;;;5072985;28;20399;-83
2021/08/29 10:34:33;;;;;;;3.28;1.60;;;;;;;;;;5046527;28;20040;-88
2021/08/29 10:36:59;;;;;;;4.15;1.33;;;;;;;;;;5069813;28;20029;-89
2021/08/29 10:39:25;;;;;;;6.05;1.50;;;;;;;;;;5069748;28;20036;-94
2021/08/29 10:41:54;;;;;;;3.22;1.10;;;;;;;;;;5069525;28;20036;-92
2021/08/29 10:44:21;;;;;;;7.82;1.50;;;;;;;;;;5059613;28;20012;-85
2021/08/29 10:46:48;;;;;;;5.47;1.40;;;;;;;;;;5073507;28;20039;-91
2021/08/29 10:49:15;;;;;;;9.63;1.80;;;;;;;;;;5073627;28;20071;-82
2021/08/29 10:51:41;;;;;;;7.00;1.52;;;;;;;;;;5071402;28;20025;-89
2021/08/29 10:54:12;;;;;;;4.50;1.83;;;;;;;;;;5073909;28;20147;-91
2021/08/29 10:56:38;;;;;;;8.75;1.48;;;;;;;;;;5073072;28;20102;-89
2021/08/29 10:59:07;;;;;;;6.45;1.42;;;;;;;;;;5072991;28;20090;-88
2021/08/29 11:01:37;;;;;;;5.38;2.00;;;;;;;;;;5072312;28;20056;-88
2021/08/29 11:04:19;;;;;;;8.35;1.70;;;;;;;;;;5073838;28;20056;-90
2021/08/29 11:06:46;;;;;;;4.95;1.70;;;;;;;;;;5072899;28;20031;-89
2021/08/29 11:09:30;;;;;;;6.07;1.33;;;;;;;;;;5073736;28;20745;-88
2021/08/29 11:11:56;;;;;;;4.22;1.40;;;;;;;;;;5072958;28;20028;-86
2021/08/29 11:14:41;;;;;;;10.38;1.90;;;;;;;;;;5073201;28;20033;-86
2021/08/29 11:17:13;;;;;;;3.45;1.25;;;;;;;;;;5073421;28;20017;-80
2021/08/29 11:19:40;;;;;;;5.15;1.63;;;;;;;;;;5070580;28;20043;-81
2021/08/29 11:22:09;;;;;;;5.05;1.30;;;;;;;;;;5072029;28;20075;-84
2021/08/29 11:24:54;;;;;;;4.47;1.30;;;;;;;;;;5071477;28;20453;-84
2021/08/29 11:27:33;;;;;;;4.30;1.20;;;;;;;;;;5070296;28;20056;-82
2021/08/29 11:29:59;;;;;;;5.45;1.60;;;;;;;;;;5070771;28;20060;-83
2021/08/29 11:32:36;;;;;;;2.72;1.30;;;;;;;;;;5071904;28;20476;-86
2021/08/29 11:35:06;;;;;;;5.60;1.40;;;;;;;;;;5072687;28;20043;-86
2021/08/29 11:37:32;;;;;;;1.90;1.00;;;;;;;;;;5075860;28;20099;-86
2021/08/29 11:40:02;;;;;;;3.35;1.60;;;;;;;;;;5075759;28;20032;-86
2021/08/29 11:42:29;;;;;;;7.10;1.30;;;;;;;;;;5074391;28;20027;-73
2021/08/29 11:44:58;;;;;;;8.15;1.45;;;;;;;;;;5075873;28;20029;-81
2021/08/29 11:47:25;;;;;;;8.23;1.60;;;;;;;;;;5074493;28;20040;-86
2021/08/29 11:49:58;;;;;;;4.15;1.10;;;;;;;;;;5074977;28;20029;-85
2021/08/29 11:52:31;;;;;;;8.63;1.42;;;;;;;;;;5075447;28;20099;-84
2021/08/29 11:55:11;;;;;;;5.25;1.40;;;;;;;;;;5074883;28;20051;-84
2021/08/29 11:57:47;;;;;;;3.63;1.55;;;;;;;;;;5075396;28;20028;-86
2021/08/29 12:00:13;;;;;;;2.47;1.10;;;;;;;;;;5076088;28;20379;-85
2021/08/29 12:02:44;;;;;;;3.95;1.25;;;;;;;;;;5075398;28;20060;-85
2021/08/29 12:05:11;;;;;;;4.72;1.80;;;;;;;;;;5073704;28;20020;-85
2021/08/29 12:07:37;;;;;;;4.70;1.30;;;;;;;;;;5073755;28;20134;-84
2021/08/29 12:10:04;;;;;;;5.57;1.83;;;;;;;;;;5075164;28;20021;-84
2021/08/29 12:12:31;;;;;;;2.80;1.27;;;;;;;;;;5075011;28;20027;-84
2021/08/29 12:14:57;;;;;;;3.60;1.33;;;;;;;;;;5074051;28;20023;-86
2021/08/29 12:17:25;;;;;;;4.50;1.50;;;;;;;;;;5074096;28;20433;-85
2021/08/29 12:19:52;;;;;;;4.45;1.38;;;;;;;;;;5074567;28;20094;-84
2021/08/29 12:22:18;;;;;;;5.68;1.30;;;;;;;;;;5075214;28;20021;-85
2021/08/29 12:24:44;;;;;;;3.80;1.65;;;;;;;;;;5073477;28;20032;-84
2021/08/29 12:27:11;;;;;;;5.93;1.52;;;;;;;;;;5073280;28;20484;-74
2021/08/29 12:29:48;;;;;;;3.78;1.25;;;;;;;;;;5072737;28;20483;-84
2021/08/29 12:32:15;;;;;;;2.70;1.23;;;;;;;;;;5071814;28;20043;-73
2021/08/29 12:34:41;;;;;;;3.13;1.10;;;;;;;;;;5073587;28;20059;-77
2021/08/29 12:37:10;;;;;;;3.83;1.08;;;;;;;;;;5056962;28;20551;-81
2021/08/29 12:39:36;;;;;;;2.80;1.20;;;;;;;;;;5073880;28;20037;-84
2021/08/29 12:42:22;;;;;;;4.15;1.23;;;;;;;;;;5074348;28;20025;-84
2021/08/29 12:44:48;;;;;;;4.57;1.30;;;;;;;;;;5067405;28;20135;-85
2021/08/29 12:47:15;;;;;;;2.90;1.25;;;;;;;;;;5072884;28;20078;-85
2021/08/29 12:49:42;;;;;;;10.02;1.40;;;;;;;;;;5073962;28;20035;-85
2021/08/29 12:52:09;;;;;;;4.82;1.00;;;;;;;;;;5058517;28;20040;-84
2021/08/29 12:54:35;;;;;;;8.00;1.55;;;;;;;;;;5053607;28;20132;-82
2021/08/29 12:57:04;;;;;;;4.38;1.00;;;;;;;;;;5053433;28;20032;-84
2021/08/29 12:59:30;;;;;;;7.30;1.60;;;;;;;;;;5055684;28;20522;-86
2021/08/29 13:02:00;;;;;;;3.30;1.15;;;;;;;;;;5068960;28;20025;-86
2021/08/29 13:04:30;;;;;;;2.80;1.00;;;;;;;;;;5053573;28;20021;-83
2021/08/29 13:07:08;;;;;;;5.75;0.98;;;;;;;;;;5072044;28;20040;-84
2021/08/29 13:09:35;;;;;;;5.30;1.15;;;;;;;;;;5071100;28;20093;-84
2021/08/29 13:12:02;;;;;;;2.45;0.95;;;;;;;;;;5071223;28;20050;-83
2021/08/29 13:14:32;;;;;;;3.08;0.93;;;;;;;;;;5071903;28;20360;-81
2021/08/29 13:17:18;;;;;;;2.33;0.77;;;;;;;;;;5073608;28;20364;-84
2021/08/29 13:20:00;;;;;;;2.75;0.80;;;;;;;;;;5073067;28;20408;-80
2021/08/29 13:22:27;;;;;;;2.00;0.73;;;;;;;;;;5073359;28;20025;-82
2021/08/29 13:24:53;;;;;;;2.47;0.90;;;;;;;;;;5073345;28;20107;-84
2021/08/29 13:27:19;;;;;;;2.08;0.90;;;;;;;;;;5073225;28;20020;-84
2021/08/29 13:29:46;;;;;;;3.03;0.95;;;;;;;;;;5073019;28;20096;-83
2021/08/29 13:32:12;;;;;;;2.03;0.93;;;;;;;;;;5073469;28;20464;-76
2021/08/29 13:34:39;;;;;;;2.13;0.88;;;;;;;;;;5073337;28;20024;-83
2021/08/29 13:37:05;;;;;;;2.55;0.90;;;;;;;;;;5072522;28;20507;-84
2021/08/29 13:39:31;;;;;;;2.05;0.90;;;;;;;;;;5057665;28;20040;-81
2021/08/29 13:42:27;;;;;;;2.97;0.93;;;;;;;;;;5053076;28;20017;-81
2021/08/29 13:44:55;;;;;;;1.35;0.77;;;;;;;;;;5043472;28;20655;-82
2021/08/29 13:47:21;;;;;;;1.55;0.80;;;;;;;;;;5052980;28;20024;-83
2021/08/29 13:49:48;;;;;;;2.15;0.90;;;;;;;;;;5052885;28;20017;-78
2021/08/29 13:52:21;;;;;;;4.45;0.85;;;;;;;;;;5051640;28;20545;-75
2021/08/29 13:54:47;;;;;;;2.75;1.08;;;;;;;;;;5059326;28;20059;-84
2021/08/29 13:57:14;;;;;;;1.65;0.73;;;;;;;;;;5072660;28;20407;-82
2021/08/29 13:59:40;;;;;;;1.40;0.80;;;;;;;;;;5072016;28;20434;-75
2021/08/29 14:02:06;;;;;;;3.47;0.98;;;;;;;;;;5073093;28;20020;-84
2021/08/29 14:04:32;;;;;;;1.63;0.80;;;;;;;;;;5072629;28;20017;-83
2021/08/29 14:06:58;;;;;;;2.22;1.00;;;;;;;;;;5072864;28;20047;-82
2021/08/29 14:09:25;;;;;;;3.25;0.95;;;;;;;;;;5088102;28;20021;-82
2021/08/29 14:11:51;;;;;;;2.17;1.05;;;;;;;;;;5085859;28;20017;-82
2021/08/29 14:14:18;;;;;;;2.72;1.20;;;;;;;;;;5072831;28;20025;-84
2021/08/29 14:16:44;;;;;;;2.25;0.68;;;;;;;;;;5072800;28;20021;-83
2021/08/29 14:19:10;;;;;;;2.30;0.82;;;;;;;;;;5072928;28;20040;-80
2021/08/29 14:21:38;;;;;;;2.33;0.88;;;;;;;;;;5072530;28;20031;-84
2021/08/29 14:24:05;;;;;;;2.40;0.98;;;;;;;;;;5072292;28;20028;-85
2021/08/29 14:26:31;;;;;;;3.50;0.93;;;;;;;;;;5072778;28;20543;-85
2021/08/29 14:28:57;;;;;;;2.42;1.00;;;;;;;;;;5072742;28;20029;-84
2021/08/29 14:31:24;;;;;;;2.28;0.90;;;;;;;;;;5071428;28;20082;-83
2021/08/29 14:33:50;;;;;;;1.83;0.95;;;;;;;;;;5072720;28;20490;-85
2021/08/29 14:36:16;;;;;;;2.60;1.20;;;;;;;;;;5088301;28;20456;-85
2021/08/29 14:38:42;;;;;;;2.85;1.13;;;;;;;;;;5071230;28;20479;-76
2021/08/29 14:41:08;;;;;;;1.80;1.10;;;;;;;;;;5071355;28;20468;-85
2021/08/29 14:43:34;;;;;;;2.72;1.10;;;;;;;;;;5072527;28;20127;-85